CheckWX is a tool to help pilots better visualize weather data.  It is not intended as a substitute for an official pre-flight weather briefing.

18:37:00 UTC

KBOW METAR
Bartow Municipal Airport
Bartow, Florida, USA
Current

47 mins ago

KBOW 261750Z 28010KT 10SM BKN035 27/16 A3000
Observed
Mar-26 @ 17:50 UTC
Wind
  • 280° at 10 KTS
Visibility
10 SM
Flight Rules
VFR
Cloud Levels
  • Broken at 3,500' AGL
Temperature
27°C / 81°F
Dewpoint
16°C / 61°F
Humidity
51%
Altimeter
30" Hg
Pressure
1015.92 hPa
Previous

2 hours ago

KBOW 261650Z 30010KT 10SM BKN030 25/16 A3002
Observed
Mar-26 @ 16:50 UTC
Wind
  • 300° at 10 KTS
Visibility
10 SM
Flight Rules
MVFR
Cloud Levels
  • Broken at 3,000' AGL
Temperature
25°C / 77°F
Dewpoint
16°C / 61°F
Humidity
57%
Altimeter
30.02" Hg
Pressure
1016.62 hPa
Previous

3 hours ago

KBOW 261550Z 29008KT 10SM FEW015 24/16 A3003
Observed
Mar-26 @ 15:50 UTC
Wind
  • 290° at 8 KTS
Visibility
10 SM
Flight Rules
VFR
Cloud Levels
  • Few at 1,500' AGL
Temperature
24°C / 75°F
Dewpoint
16°C / 61°F
Humidity
61%
Altimeter
30.03" Hg
Pressure
1016.92 hPa